Time;durP1;ratioP1;P1;durP2;ratioP2;P2;SDS_P1;SDS_P2;PMS_P1;PMS_P2;Temp;Humidity;BMP_temperature;BMP_pressure;BME280_temperature;BME280_humidity;BME280_pressure;Samples;Min_cycle;Max_cycle;Signal;HPM_P1;HPM_P2
2022/04/16 00:01:49;;;;;;;5.70;5.40;;;9.30;27.10;;;;;;5093642;28;20173;-71
2022/04/16 00:04:15;;;;;;;6.30;5.47;;;9.30;27.90;;;;;;5092410;28;20177;-71
2022/04/16 00:06:40;;;;;;;6.77;6.27;;;9.30;27.00;;;;;;5093341;28;20894;-71
2022/04/16 00:09:06;;;;;;;5.83;5.43;;;9.30;27.10;;;;;;5093516;28;20526;-71
2022/04/16 00:11:32;;;;;;;7.10;6.60;;;9.40;27.10;;;;;;5092233;28;20186;-70
2022/04/16 00:13:58;;;;;;;7.40;6.70;;;9.30;27.00;;;;;;5093329;28;20783;-71
2022/04/16 00:16:24;;;;;;;7.23;6.73;;;9.20;27.00;;;;;;5093176;28;20409;-71
2022/04/16 00:18:50;;;;;;;7.20;6.60;;;9.20;26.90;;;;;;5093228;28;20500;-71
2022/04/16 00:21:15;;;;;;;7.17;6.57;;;9.20;27.00;;;;;;5093217;28;20182;-71
2022/04/16 00:23:41;;;;;;;5.70;5.30;;;9.00;27.80;;;;;;5093264;28;20185;-70
2022/04/16 00:26:07;;;;;;;6.13;5.73;;;9.00;27.70;;;;;;5093098;28;20209;-71
2022/04/16 00:28:35;;;;;;;7.57;6.87;;;8.90;27.90;;;;;;5092631;28;20422;-71
2022/04/16 00:31:00;;;;;;;6.03;5.53;;;9.00;28.10;;;;;;5093182;28;20435;-70
2022/04/16 00:33:26;;;;;;;6.80;6.20;;;8.90;27.70;;;;;;5093102;28;20496;-70
2022/04/16 00:35:52;;;;;;;7.13;6.53;;;8.90;27.80;;;;;;5093207;28;20224;-70
2022/04/16 00:38:18;;;;;;;6.47;6.00;;;8.80;27.90;;;;;;5092932;28;20437;-71
2022/04/16 00:40:44;;;;;;;7.07;5.70;;;8.70;27.90;;;;;;5093142;28;20189;-70
2022/04/16 00:43:23;;;;;;;6.53;5.93;;;8.60;28.00;;;;;;5092911;28;20419;-70
2022/04/16 00:45:49;;;;;;;6.30;5.90;;;8.50;28.00;;;;;;5092861;28;20181;-70
2022/04/16 00:48:15;;;;;;;5.93;5.50;;;8.40;28.00;;;;;;5092686;28;20431;-71
2022/04/16 00:50:40;;;;;;;7.03;6.40;;;8.30;28.20;;;;;;5092561;28;20298;-71
2022/04/16 00:53:06;;;;;;;7.00;6.50;;;8.20;28.60;;;;;;5092649;28;20205;-71
2022/04/16 00:55:38;;;;;;;6.00;5.50;;;8.30;28.60;;;;;;5092880;28;20445;-71
2022/04/16 00:58:03;;;;;;;5.60;5.20;;;8.30;29.20;;;;;;5092621;28;20691;-71
2022/04/16 01:00:29;;;;;;;5.97;5.33;;;8.30;28.50;;;;;;5091246;28;20522;-71
2022/04/16 01:02:56;;;;;;;5.73;5.30;;;8.20;28.70;;;;;;5092470;28;20216;-71
2022/04/16 01:05:22;;;;;;;7.83;6.30;;;8.10;28.90;;;;;;5091158;28;20419;-71
2022/04/16 01:07:54;;;;;;;6.33;5.83;;;8.10;29.20;;;;;;5092216;28;20487;-71
2022/04/16 01:10:26;;;;;;;6.63;5.87;;;8.10;29.30;;;;;;5092331;28;20573;-71
2022/04/16 01:12:52;;;;;;;6.30;5.80;;;8.10;29.30;;;;;;5092378;28;20459;-69
2022/04/16 01:15:20;;;;;;;6.03;5.50;;;8.10;29.70;;;;;;5092365;28;20499;-71
2022/04/16 01:17:47;;;;;;;5.93;5.47;;;8.00;29.50;;;;;;5090919;28;20458;-71
2022/04/16 01:20:13;;;;;;;5.37;4.73;;;7.90;29.40;;;;;;5092131;28;20432;-70
2022/04/16 01:22:39;;;;;;;5.73;5.23;;;7.80;30.10;;;;;;5092123;28;20427;-70
2022/04/16 01:25:07;;;;;;;6.30;4.73;;;7.80;30.00;;;;;;5092151;28;20418;-70
2022/04/16 01:27:35;;;;;;;5.67;5.17;;;7.80;30.10;;;;;;5091854;28;20419;-70
2022/04/16 01:30:03;;;;;;;5.87;5.30;;;7.70;30.00;;;;;;5092450;28;20483;-70
2022/04/16 01:32:29;;;;;;;4.73;4.33;;;7.70;31.10;;;;;;5091967;28;20462;-70
2022/04/16 01:34:55;;;;;;;4.70;4.40;;;7.70;31.30;;;;;;5092001;28;20415;-70
2022/04/16 01:37:23;;;;;;;5.40;4.90;;;7.70;30.90;;;;;;5091740;28;20486;-70
2022/04/16 01:39:48;;;;;;;5.10;4.70;;;7.60;31.70;;;;;;5091926;28;20673;-70
2022/04/16 01:42:14;;;;;;;4.57;4.17;;;7.70;31.80;;;;;;5092017;28;20455;-70
2022/04/16 01:44:42;;;;;;;6.70;4.90;;;7.70;31.20;;;;;;5092018;28;20187;-70
2022/04/16 01:47:10;;;;;;;5.17;4.77;;;7.60;31.20;;;;;;5091722;28;20642;-70
2022/04/16 01:49:36;;;;;;;5.50;5.10;;;7.60;32.40;;;;;;5091763;28;20490;-69
2022/04/16 01:52:02;;;;;;;5.00;4.60;;;7.60;31.60;;;;;;5091801;28;20473;-69
2022/04/16 01:54:27;;;;;;;4.77;4.37;;;7.50;31.20;;;;;;5091824;28;20179;-69
2022/04/16 01:56:53;;;;;;;5.70;5.20;;;7.50;32.70;;;;;;5091561;28;20210;-70
2022/04/16 01:59:18;;;;;;;5.33;4.93;;;7.40;32.60;;;;;;5091759;28;20309;-70
2022/04/16 02:01:45;;;;;;;5.10;4.70;;;7.40;32.30;;;;;;5091755;28;20226;-70
2022/04/16 02:04:10;;;;;;;5.23;4.83;;;7.40;31.90;;;;;;5095561;28;20200;-70
2022/04/16 02:06:36;;;;;;;4.37;4.03;;;7.30;32.20;;;;;;5095490;28;20417;-70
2022/04/16 02:09:03;;;;;;;4.70;4.30;;;7.30;33.10;;;;;;5095695;28;20193;-69
2022/04/16 02:11:28;;;;;;;6.63;6.03;;;7.30;32.70;;;;;;5095774;28;20542;-69
2022/04/16 02:13:54;;;;;;;5.40;4.97;;;7.20;32.30;;;;;;5097051;28;20461;-70
2022/04/16 02:16:19;;;;;;;7.00;4.40;;;7.20;32.60;;;;;;5095632;28;20259;-69
2022/04/16 02:18:45;;;;;;;5.10;4.60;;;7.10;32.60;;;;;;5095173;28;20211;-70
2022/04/16 02:21:10;;;;;;;5.27;4.77;;;7.10;32.90;;;;;;5095786;28;20287;-70
2022/04/16 02:23:37;;;;;;;6.27;4.67;;;7.10;33.20;;;;;;5095620;28;20174;-70
2022/04/16 02:26:07;;;;;;;5.13;4.73;;;7.00;33.90;;;;;;5095436;28;20192;-70
2022/04/16 02:28:34;;;;;;;11.27;5.40;;;7.00;34.70;;;;;;5093783;28;20479;-69
2022/04/16 02:31:00;;;;;;;4.57;4.10;;;7.00;35.90;;;;;;5095258;28;20418;-69
2022/04/16 02:33:26;;;;;;;8.10;4.77;;;7.10;36.00;;;;;;5095065;28;20871;-69
2022/04/16 02:35:52;;;;;;;5.40;4.60;;;7.20;36.00;;;;;;5095232;28;20420;-69
2022/04/16 02:38:18;;;;;;;4.90;4.47;;;7.30;36.10;;;;;;5094973;28;20411;-69
2022/04/16 02:40:43;;;;;;;5.07;4.53;;;7.40;33.80;;;;;;5093774;28;20497;-69
2022/04/16 02:43:09;;;;;;;4.90;4.50;;;7.50;33.80;;;;;;5095036;28;20246;-69
2022/04/16 02:48:18;;;;;;;5.77;5.27;;;7.70;31.20;;;;;;5094926;28;20238;-70
2022/04/16 02:50:44;;;;;;;5.53;5.13;;;7.90;30.00;;;;;;5094884;28;20936;-70
2022/04/16 02:53:11;;;;;;;6.83;6.33;;;8.00;29.60;;;;;;5094862;28;20295;-69
2022/04/16 02:55:37;;;;;;;5.43;5.03;;;8.00;29.30;;;;;;5094915;28;20177;-70
2022/04/16 02:58:03;;;;;;;5.13;4.83;;;8.00;29.00;;;;;;5094615;28;20510;-70
2022/04/16 03:00:28;;;;;;;5.60;5.10;;;8.00;28.60;;;;;;5094716;28;20204;-70
2022/04/16 03:02:54;;;;;;;5.83;5.43;;;8.00;28.80;;;;;;5094712;28;20926;-70
2022/04/16 03:05:20;;;;;;;5.50;5.00;;;7.90;29.30;;;;;;5094911;28;20189;-70
2022/04/16 03:07:46;;;;;;;6.07;5.60;;;7.90;28.90;;;;;;5094829;28;20212;-70
2022/04/16 03:10:12;;;;;;;5.60;5.20;;;7.90;29.10;;;;;;5094922;28;20442;-70
2022/04/16 03:13:04;;;;;;;5.93;5.40;;;7.70;28.90;;;;;;5093528;28;20565;-70
2022/04/16 03:18:13;;;;;;;5.90;5.40;;;7.70;30.00;;;;;;5094792;28;20464;-70
2022/04/16 03:20:42;;;;;;;4.97;4.67;;;7.60;30.00;;;;;;5093121;28;20446;-70
2022/04/16 03:23:09;;;;;;;7.20;6.60;;;7.70;29.60;;;;;;5094349;28;20176;-70
2022/04/16 03:25:37;;;;;;;6.83;6.33;;;7.70;30.00;;;;;;5094324;28;20887;-70
2022/04/16 03:28:03;;;;;;;5.97;5.57;;;7.70;29.40;;;;;;5094092;28;20889;-69
2022/04/16 03:30:28;;;;;;;4.80;4.50;;;7.60;29.40;;;;;;5094079;28;20480;-70
2022/04/16 03:32:54;;;;;;;5.00;4.57;;;7.50;29.50;;;;;;5094029;28;20212;-70
2022/04/16 03:35:22;;;;;;;4.80;4.30;;;7.50;29.60;;;;;;5094185;28;20265;-69
2022/04/16 03:37:47;;;;;;;5.73;5.23;;;7.30;29.80;;;;;;5093731;28;20195;-69
2022/04/16 03:40:13;;;;;;;5.00;4.60;;;7.40;29.90;;;;;;5092742;28;20956;-69
2022/04/16 03:42:45;;;;;;;5.67;5.23;;;7.30;29.80;;;;;;5094066;28;20188;-70
2022/04/16 03:45:16;;;;;;;6.10;5.50;;;7.30;29.80;;;;;;5093933;28;20781;-70
2022/04/16 03:47:42;;;;;;;5.13;4.47;;;7.30;29.80;;;;;;5093773;28;20728;-70
2022/04/16 03:50:08;;;;;;;5.80;5.30;;;7.20;29.70;;;;;;5093734;28;20808;-69
2022/04/16 03:52:41;;;;;;;5.27;4.87;;;7.10;30.00;;;;;;5093681;28;20820;-69
2022/04/16 04:00:38;;;;;;;5.90;5.40;;;6.90;29.90;;;;;;5094171;28;20199;-69
2022/04/16 04:03:04;;;;;;;6.47;4.50;;;6.90;30.50;;;;;;5093594;28;20413;-69
2022/04/16 04:05:29;;;;;;;5.70;5.20;;;6.80;30.20;;;;;;5093568;28;20263;-68
2022/04/16 04:07:55;;;;;;;5.87;5.37;;;6.70;30.70;;;;;;5093231;28;20654;-69
2022/04/16 04:10:21;;;;;;;4.97;4.40;;;6.60;30.90;;;;;;5093350;28;20199;-70
2022/04/16 04:12:46;;;;;;;5.20;4.70;;;6.60;30.70;;;;;;5093440;28;20456;-69
2022/04/16 04:15:12;;;;;;;4.43;4.03;;;6.50;30.90;;;;;;5093334;28;20172;-69
2022/04/16 04:17:37;;;;;;;3.57;3.27;;;6.30;31.70;;;;;;5091787;28;20178;-69
2022/04/16 04:20:04;;;;;;;4.73;4.33;;;6.10;33.90;;;;;;5093234;28;20444;-69
2022/04/16 04:22:29;;;;;;;5.15;4.65;;;6.20;33.10;;;;;;5093158;28;20190;-69
2022/04/16 04:24:55;;;;;;;4.50;4.10;;;6.20;32.90;;;;;;5092837;28;20182;-69
2022/04/16 04:27:20;;;;;;;6.37;4.13;;;6.20;33.80;;;;;;5092907;28;20213;-69
2022/04/16 04:29:46;;;;;;;7.90;5.77;;;6.20;34.00;;;;;;5092923;28;20298;-69
2022/04/16 04:32:11;;;;;;;5.93;5.43;;;6.30;34.00;;;;;;5092925;28;20737;-69
2022/04/16 04:34:37;;;;;;;5.70;5.20;;;6.30;32.80;;;;;;5093029;28;20226;-69
2022/04/16 04:37:03;;;;;;;4.63;4.23;;;6.30;32.90;;;;;;5091410;28;20550;-69
2022/04/16 04:39:28;;;;;;;7.00;6.00;;;6.40;32.20;;;;;;5092889;28;20196;-70
2022/04/16 04:41:54;;;;;;;5.03;4.53;;;6.40;32.20;;;;;;5091657;28;20179;-69
2022/04/16 04:44:20;;;;;;;4.70;4.30;;;6.50;31.60;;;;;;5092846;28;20180;-69
2022/04/16 04:46:45;;;;;;;6.30;5.80;;;6.50;31.60;;;;;;5092494;28;20175;-69
2022/04/16 04:49:11;;;;;;;5.80;5.30;;;6.50;30.70;;;;;;5092577;28;20195;-69
2022/04/16 04:51:39;;;;;;;6.65;4.85;;;6.50;31.10;;;;;;5092927;28;20184;-69
2022/04/16 04:54:06;;;;;;;4.95;4.57;;;6.60;31.30;;;;;;5092548;28;20202;-69
2022/04/16 04:56:32;;;;;;;6.40;4.95;;;6.60;31.70;;;;;;5092464;28;20225;-69
2022/04/16 04:58:58;;;;;;;6.93;5.30;;;6.70;31.60;;;;;;5092486;28;20218;-70
2022/04/16 05:01:24;;;;;;;4.83;4.43;;;6.80;31.20;;;;;;5092554;28;20230;-70
2022/04/16 05:03:50;;;;;;;4.97;4.57;;;6.90;31.20;;;;;;5092436;28;20188;-69
2022/04/16 05:06:16;;;;;;;5.17;4.73;;;7.00;31.10;;;;;;5092326;28;20443;-70
2022/04/16 05:08:43;;;;;;;5.70;5.20;;;7.10;30.70;;;;;;5092108;28;20526;-70
2022/04/16 05:11:10;;;;;;;5.40;5.00;;;7.30;29.80;;;;;;5092412;28;20284;-70
2022/04/16 05:13:35;;;;;;;6.20;5.70;;;7.40;29.00;;;;;;5092266;28;20531;-70
2022/04/16 05:16:01;;;;;;;5.73;5.23;;;7.50;28.90;;;;;;5092172;28;20407;-69
2022/04/16 05:18:26;;;;;;;5.70;5.23;;;7.70;28.60;;;;;;5092102;28;20216;-70
2022/04/16 05:20:52;;;;;;;6.07;5.60;;;7.90;28.30;;;;;;5092443;28;20173;-70
2022/04/16 05:23:17;;;;;;;7.07;6.50;;;8.20;27.00;;;;;;5092510;28;20177;-70
2022/04/16 05:25:43;;;;;;;7.27;6.60;;;8.30;27.00;;;;;;5092385;28;20202;-70
2022/04/16 05:28:09;;;;;;;7.13;6.63;;;8.80;26.70;;;;;;5091855;28;20181;-70
2022/04/16 05:30:39;;;;;;;7.57;7.17;;;9.30;25.20;;;;;;5091649;28;20637;-70
2022/04/16 05:33:16;;;;;;;7.80;7.30;;;9.60;24.00;;;;;;5092433;28;20463;-70
2022/04/16 05:35:42;;;;;;;8.50;8.00;;;10.00;22.60;;;;;;5092228;28;20782;-70
2022/04/16 05:38:08;;;;;;;9.00;8.50;;;10.20;21.50;;;;;;5091027;28;20467;-70
2022/04/16 05:40:33;;;;;;;9.17;8.60;;;10.40;21.20;;;;;;5091938;28;20945;-70
2022/04/16 05:42:59;;;;;;;9.60;8.73;;;10.60;21.00;;;;;;5091888;28;20265;-70
2022/04/16 05:45:24;;;;;;;9.77;9.17;;;10.70;20.90;;;;;;5092000;28;20189;-70
2022/04/16 05:47:50;;;;;;;9.07;8.60;;;10.70;20.20;;;;;;5091627;28;20312;-68
2022/04/16 05:50:15;;;;;;;9.60;8.97;;;10.90;20.00;;;;;;5091890;28;20196;-68
2022/04/16 05:52:41;;;;;;;9.53;9.03;;;11.00;20.10;;;;;;5091805;28;20211;-68
2022/04/16 05:55:08;;;;;;;10.27;9.53;;;11.00;20.10;;;;;;5091883;28;20180;-68
2022/04/16 05:57:33;;;;;;;9.67;8.97;;;11.00;20.10;;;;;;5091471;28;20212;-68
2022/04/16 05:59:59;;;;;;;10.30;9.70;;;11.10;20.10;;;;;;5091691;28;20970;-68
2022/04/16 06:02:24;;;;;;;10.70;10.07;;;11.30;19.50;;;;;;5091757;28;20188;-68
2022/04/16 06:04:50;;;;;;;10.40;9.90;;;11.40;19.30;;;;;;5091831;28;20189;-67
2022/04/16 06:07:16;;;;;;;11.07;10.30;;;11.60;19.00;;;;;;5091387;28;20634;-69
2022/04/16 06:09:41;;;;;;;12.03;11.33;;;11.70;18.20;;;;;;5091753;28;20573;-69
2022/04/16 06:12:09;;;;;;;11.83;11.13;;;11.80;18.60;;;;;;5091542;28;20203;-69
2022/04/16 06:14:35;;;;;;;10.17;9.63;;;11.70;17.80;;;;;;5091699;28;20168;-68
2022/04/16 06:17:00;;;;;;;9.90;9.40;;;10.50;19.50;;;;;;5091382;28;20429;-69
2022/04/16 06:19:26;;;;;;;10.50;9.90;;;10.90;20.60;;;;;;5091542;28;20613;-69
2022/04/16 06:21:52;;;;;;;10.17;9.67;;;11.10;19.70;;;;;;5091608;28;20184;-69
2022/04/16 06:24:17;;;;;;;10.70;10.10;;;11.30;19.30;;;;;;5071777;28;20186;-69
2022/04/16 06:26:45;;;;;;;10.70;10.20;;;11.80;19.00;;;;;;5070470;28;20185;-69
2022/04/16 06:29:11;;;;;;;11.77;11.17;;;11.80;18.00;;;;;;5069365;28;20341;-69
2022/04/16 06:31:36;;;;;;;11.23;10.63;;;12.20;16.80;;;;;;5072566;28;20442;-69
2022/04/16 06:34:02;;;;;;;12.67;11.97;;;12.20;17.60;;;;;;5072456;28;20474;-69
2022/04/16 06:36:27;;;;;;;11.67;11.07;;;12.30;16.60;;;;;;5091512;28;20246;-68
2022/04/16 06:38:53;;;;;;;11.83;11.13;;;12.30;16.70;;;;;;5091387;28;20394;-67
2022/04/16 06:41:18;;;;;;;11.20;10.60;;;11.90;17.00;;;;;;5090072;28;20177;-69
2022/04/16 06:43:44;;;;;;;10.03;9.50;;;11.80;17.70;;;;;;5091130;28;20231;-67
2022/04/16 06:46:09;;;;;;;10.37;9.77;;;11.30;18.10;;;;;;5091372;28;20534;-68
2022/04/16 06:48:35;;;;;;;9.37;8.87;;;10.80;19.50;;;;;;5092322;28;20729;-67
2022/04/16 06:51:00;;;;;;;9.17;8.57;;;10.50;20.50;;;;;;5095001;28;20186;-68
2022/04/16 06:53:27;;;;;;;8.87;8.47;;;10.20;20.70;;;;;;5094724;28;20209;-69
2022/04/16 06:55:52;;;;;;;8.40;7.90;;;9.70;22.40;;;;;;5093456;28;20176;-67
2022/04/16 06:58:18;;;;;;;8.90;8.37;;;9.40;22.90;;;;;;5094424;28;20568;-68
2022/04/16 07:00:43;;;;;;;7.50;7.10;;;9.40;23.00;;;;;;5094732;28;20196;-69
2022/04/16 07:03:09;;;;;;;8.33;7.83;;;9.30;22.90;;;;;;5094781;28;20175;-68
2022/04/16 07:05:34;;;;;;;9.57;8.97;;;9.40;22.90;;;;;;5094723;28;20182;-67
2022/04/16 07:08:00;;;;;;;8.60;8.00;;;9.60;23.00;;;;;;5094328;28;20182;-68
2022/04/16 07:10:25;;;;;;;10.57;9.30;;;9.30;23.40;;;;;;5094630;28;20205;-70
2022/04/16 07:12:51;;;;;;;9.33;8.47;;;9.40;23.30;;;;;;5094331;28;20201;-73
2022/04/16 07:15:17;;;;;;;8.37;7.97;;;9.50;23.20;;;;;;5095491;28;20178;-72
2022/04/16 07:17:45;;;;;;;9.77;8.97;;;10.00;22.30;;;;;;5095053;28;20175;-73
2022/04/16 07:20:10;;;;;;;9.03;8.43;;;10.40;21.00;;;;;;5095792;28;20197;-69
2022/04/16 07:22:37;;;;;;;10.80;9.87;;;10.20;21.30;;;;;;5094222;28;20509;-69
2022/04/16 07:25:06;;;;;;;9.27;8.77;;;10.40;21.20;;;;;;5094516;28;20180;-69
2022/04/16 07:27:32;;;;;;;9.80;9.10;;;10.20;21.60;;;;;;5093962;28;20918;-68
2022/04/16 07:29:58;;;;;;;9.53;8.73;;;10.10;21.10;;;;;;5115400;22;20504;-71
2022/04/16 07:32:25;;;;;;;9.97;9.43;;;10.10;21.20;;;;;;5093157;28;20299;-71
2022/04/16 07:34:51;;;;;;;11.00;10.33;;;10.40;21.30;;;;;;5094546;28;20414;-71
2022/04/16 07:37:17;;;;;;;10.50;9.90;;;10.80;19.30;;;;;;5095063;28;20819;-70
2022/04/16 07:39:42;;;;;;;11.30;10.40;;;10.90;19.50;;;;;;5094265;28;20318;-70
2022/04/16 07:42:08;;;;;;;10.70;10.03;;;10.50;20.20;;;;;;5094525;28;20334;-70
2022/04/16 07:44:35;;;;;;;10.80;10.20;;;10.80;19.90;;;;;;5094211;28;20570;-72
2022/04/16 07:47:00;;;;;;;11.33;10.73;;;11.10;19.10;;;;;;5091838;28;20642;-71
2022/04/16 07:49:26;;;;;;;10.43;9.83;;;11.30;19.20;;;;;;5095998;28;20446;-72
2022/04/16 07:51:51;;;;;;;12.90;12.07;;;11.00;19.00;;;;;;5094559;28;20593;-70
2022/04/16 07:54:17;;;;;;;11.00;10.40;;;11.30;18.80;;;;;;5094086;28;20188;-69
2022/04/16 07:56:43;;;;;;;12.10;11.33;;;11.40;18.60;;;;;;5092146;28;20259;-70
2022/04/16 07:59:08;;;;;;;11.27;10.47;;;11.10;18.40;;;;;;5093655;28;20190;-70
2022/04/16 08:01:34;;;;;;;11.70;11.10;;;11.10;19.10;;;;;;5092978;28;20661;-69
2022/04/16 08:03:59;;;;;;;11.63;10.93;;;11.10;19.10;;;;;;5093680;28;20209;-68
2022/04/16 08:06:25;;;;;;;13.53;12.33;;;11.40;18.40;;;;;;5092976;28;20208;-68
2022/04/16 08:08:50;;;;;;;12.90;12.17;;;11.40;17.60;;;;;;5092082;28;20658;-69
2022/04/16 08:11:17;;;;;;;11.40;10.80;;;11.40;17.80;;;;;;5093595;28;20181;-69
2022/04/16 08:13:42;;;;;;;12.10;11.30;;;11.50;17.70;;;;;;5093554;28;20201;-68
2022/04/16 08:16:08;;;;;;;11.70;11.00;;;11.70;17.40;;;;;;5094361;28;20541;-69
2022/04/16 08:18:33;;;;;;;12.40;11.70;;;11.80;18.10;;;;;;5097538;28;20226;-68
2022/04/16 08:20:59;;;;;;;12.90;12.00;;;11.80;17.50;;;;;;5095847;28;20190;-69
2022/04/16 08:23:26;;;;;;;12.33;11.60;;;11.70;17.60;;;;;;5093332;28;20194;-69
2022/04/16 08:25:52;;;;;;;12.17;11.47;;;11.80;16.80;;;;;;5092034;28;20242;-69
2022/04/16 08:28:18;;;;;;;11.80;10.97;;;11.90;16.90;;;;;;5093455;28;20549;-71
2022/04/16 08:30:43;;;;;;;12.67;11.87;;;11.30;17.20;;;;;;5093546;28;20716;-69
2022/04/16 08:33:13;;;;;;;12.30;11.53;;;11.50;17.30;;;;;;5093593;28;20459;-68
2022/04/16 08:35:42;;;;;;;10.87;10.20;;;11.30;17.70;;;;;;5093733;28;20682;-68
2022/04/16 08:38:08;;;;;;;12.60;11.80;;;11.20;18.30;;;;;;5093289;28;20412;-68
2022/04/16 08:40:34;;;;;;;12.17;11.50;;;11.00;18.50;;;;;;5093025;28;20813;-70
2022/04/16 08:43:01;;;;;;;12.43;11.67;;;10.80;18.90;;;;;;5093041;28;20508;-67
2022/04/16 08:45:30;;;;;;;12.40;11.50;;;10.90;19.00;;;;;;5092402;28;20187;-68
2022/04/16 08:47:57;;;;;;;12.50;11.47;;;11.20;18.30;;;;;;5093166;28;20545;-68
2022/04/16 08:50:24;;;;;;;12.27;11.47;;;11.30;18.70;;;;;;5093288;28;20459;-68
2022/04/16 08:52:50;;;;;;;10.70;10.10;;;11.30;18.50;;;;;;5092666;28;20895;-69
2022/04/16 08:55:16;;;;;;;11.60;10.93;;;11.60;17.80;;;;;;5093732;28;20938;-70
2022/04/16 08:57:41;;;;;;;11.73;11.03;;;11.50;17.50;;;;;;5094245;28;20430;-67
2022/04/16 09:00:13;;;;;;;12.17;11.47;;;11.60;17.50;;;;;;5092578;28;20200;-68
2022/04/16 09:02:49;;;;;;;11.50;10.80;;;11.40;17.80;;;;;;5094453;28;20179;-69
2022/04/16 09:05:19;;;;;;;12.53;11.80;;;11.60;18.40;;;;;;5094067;28;20434;-71
2022/04/16 09:07:46;;;;;;;12.77;11.97;;;11.70;17.10;;;;;;5092795;28;20432;-70
2022/04/16 09:10:12;;;;;;;12.17;11.43;;;11.60;16.90;;;;;;5093727;28;20940;-70
2022/04/16 09:12:41;;;;;;;12.30;11.60;;;11.70;16.80;;;;;;5093149;28;20507;-69
2022/04/16 09:15:11;;;;;;;11.83;11.10;;;11.60;16.70;;;;;;5092891;28;20754;-69
2022/04/16 09:17:38;;;;;;;11.57;10.83;;;11.20;17.50;;;;;;5092180;28;20832;-69
2022/04/16 09:20:14;;;;;;;11.80;11.10;;;11.30;17.90;;;;;;5092421;28;20759;-69
2022/04/16 09:22:41;;;;;;;12.70;11.80;;;11.30;17.70;;;;;;5094270;28;20421;-71
2022/04/16 09:25:15;;;;;;;13.53;12.53;;;11.60;17.20;;;;;;5094189;28;20800;-69
2022/04/16 09:27:49;;;;;;;12.97;12.17;;;11.70;17.20;;;;;;5094255;28;20436;-69
2022/04/16 09:30:25;;;;;;;12.57;11.77;;;11.50;17.00;;;;;;5093801;28;20450;-69
2022/04/16 09:32:52;;;;;;;13.27;12.30;;;11.70;17.10;;;;;;5097480;28;20453;-71
2022/04/16 09:35:28;;;;;;;13.07;12.27;;;11.80;17.10;;;;;;5094140;28;20493;-68
2022/04/16 09:37:58;;;;;;;14.50;13.50;;;11.90;16.70;;;;;;5093789;28;20797;-68
2022/04/16 09:40:25;;;;;;;13.83;12.87;;;12.20;16.20;;;;;;5093489;28;20561;-69
2022/04/16 09:42:56;;;;;;;13.13;12.43;;;12.40;15.10;;;;;;5094347;28;20415;-69
2022/04/16 09:45:21;;;;;;;13.20;12.60;;;12.80;14.20;;;;;;5093400;28;20426;-68
2022/04/16 09:47:49;;;;;;;14.23;13.23;;;12.90;12.80;;;;;;5093849;28;20431;-67
2022/04/16 09:50:17;;;;;;;12.40;11.80;;;12.50;14.50;;;;;;5093642;28;20200;-68
2022/04/16 09:52:43;;;;;;;13.53;12.80;;;12.80;14.10;;;;;;5093124;28;20542;-67
2022/04/16 09:55:09;;;;;;;14.20;13.50;;;12.90;12.60;;;;;;5093880;28;20414;-69
2022/04/16 09:57:38;;;;;;;13.90;13.00;;;12.40;13.90;;;;;;5093347;28;20422;-69
2022/04/16 10:00:05;;;;;;;12.67;11.93;;;12.50;14.20;;;;;;5092807;28;20857;-68
2022/04/16 10:02:31;;;;;;;12.43;11.83;;;12.00;14.30;;;;;;5090685;28;20467;-72
2022/04/16 10:04:59;;;;;;;13.40;12.50;;;12.00;14.60;;;;;;5092260;28;20414;-71
2022/04/16 10:07:25;;;;;;;13.60;12.90;;;12.20;15.50;;;;;;5092314;28;20406;-71
2022/04/16 10:09:55;;;;;;;14.73;13.73;;;12.80;13.60;;;;;;5093008;28;20439;-71
2022/04/16 10:15:02;;;;;;;13.07;12.47;;;13.30;12.40;;;;;;5093266;28;20477;-68
2022/04/16 10:17:35;;;;;;;12.63;11.97;;;13.50;12.10;;;;;;5071384;28;20789;-70
2022/04/16 10:20:14;;;;;;;14.27;13.40;;;13.30;12.00;;;;;;5079355;28;20421;-70
2022/04/16 10:22:40;;;;;;;14.13;13.43;;;13.00;12.30;;;;;;5089834;28;20772;-71
2022/04/16 10:25:06;;;;;;;14.73;13.87;;;12.90;11.70;;;;;;5110043;28;20415;-69
2022/04/16 10:27:40;;;;;;;14.60;13.80;;;12.90;12.60;;;;;;5105590;28;20184;-69
2022/04/16 10:30:12;;;;;;;13.87;13.17;;;13.00;12.40;;;;;;5098120;28;20446;-70
2022/04/16 10:32:39;;;;;;;12.90;12.20;;;13.10;11.80;;;;;;5096499;28;20976;-71
2022/04/16 10:35:06;;;;;;;12.73;12.17;;;12.90;11.70;;;;;;5095318;28;20431;-71
2022/04/16 10:37:40;;;;;;;13.23;12.53;;;13.20;11.90;;;;;;5096382;28;20446;-70
2022/04/16 10:40:26;;;;;;;14.67;13.77;;;13.20;11.90;;;;;;5096617;28;20485;-71
2022/04/16 10:42:58;;;;;;;12.70;12.10;;;13.10;11.80;;;;;;5095303;28;20499;-71
2022/04/16 10:45:24;;;;;;;14.30;13.40;;;;;;;;;;5095380;28;20402;-71
2022/04/16 10:47:53;;;;;;;13.80;13.10;;;12.60;13.00;;;;;;5094720;28;20423;-70
2022/04/16 10:50:20;;;;;;;12.63;12.00;;;11.80;13.60;;;;;;5095125;28;20970;-70
2022/04/16 10:53:02;;;;;;;13.27;12.67;;;12.00;14.80;;;;;;5094251;28;20823;-70
2022/04/16 10:55:32;;;;;;;12.37;11.70;;;11.60;14.80;;;;;;5095357;28;20413;-71
2022/04/16 10:58:03;;;;;;;12.90;12.10;;;12.00;14.70;;;;;;5093329;28;20421;-70
2022/04/16 11:00:45;;;;;;;12.37;11.50;;;12.20;14.70;;;;;;5094866;28;20525;-70
2022/04/16 11:03:12;;;;;;;11.80;11.20;;;12.20;14.20;;;;;;5094793;28;20425;-71
2022/04/16 11:05:41;;;;;;;13.13;12.30;;;12.30;14.10;;;;;;5094683;28;20443;-71
2022/04/16 11:08:07;;;;;;;13.90;13.17;;;12.80;14.00;;;;;;5082906;28;20485;-70
2022/04/16 11:10:33;;;;;;;14.20;13.30;;;12.80;14.30;;;;;;5074132;28;20439;-72
2022/04/16 11:13:01;;;;;;;14.27;13.47;;;12.80;14.00;;;;;;5074181;28;20209;-71
2022/04/16 11:15:28;;;;;;;14.43;13.63;;;12.80;14.40;;;;;;5086688;28;20744;-76
2022/04/16 11:17:58;;;;;;;13.50;12.83;;;13.20;13.90;;;;;;5094519;28;20403;-73
2022/04/16 11:20:26;;;;;;;14.80;13.80;;;12.90;13.50;;;;;;5093520;28;20448;-75
2022/04/16 11:22:52;;;;;;;13.37;12.63;;;12.60;14.10;;;;;;5092023;28;20449;-71
2022/04/16 11:25:22;;;;;;;13.47;12.60;;;12.60;14.10;;;;;;5074377;28;20424;-71
2022/04/16 11:36:08;;;;;;;12.13;11.53;;;12.10;13.40;;;;;;5072985;28;20535;-71
2022/04/16 11:38:39;;;;;;;13.63;12.93;;;12.50;13.40;;;;;;5072586;28;20452;-70
2022/04/16 11:41:10;;;;;;;13.90;13.17;;;12.90;12.50;;;;;;5079687;28;20802;-71
2022/04/16 11:43:38;;;;;;;13.93;13.23;;;13.50;12.10;;;;;;5084727;28;21012;-71
2022/04/16 11:46:11;;;;;;;13.30;12.70;;;13.80;10.80;;;;;;5087143;28;20430;-71
2022/04/16 11:48:37;;;;;;;14.00;13.40;;;13.90;10.30;;;;;;5077147;28;20489;-69
2022/04/16 11:51:04;;;;;;;14.13;13.43;;;13.20;11.90;;;;;;5074798;28;20449;-69
2022/04/16 11:53:30;;;;;;;14.23;13.53;;;13.60;12.10;;;;;;5073611;28;20465;-70
2022/04/16 11:55:56;;;;;;;13.30;12.57;;;14.20;10.90;;;;;;5087640;28;20430;-70
2022/04/16 11:58:28;;;;;;;13.27;12.47;;;14.80;10.40;;;;;;5093553;28;20173;-70
2022/04/16 12:00:55;;;;;;;14.23;13.53;;;15.40;9.70;;;;;;5093710;28;20429;-72
2022/04/16 12:03:22;;;;;;;14.97;14.37;;;15.30;8.30;;;;;;5073619;28;20418;-70
2022/04/16 12:05:48;;;;;;;14.30;13.60;;;14.30;9.30;;;;;;5073432;28;20443;-71
2022/04/16 12:08:16;;;;;;;13.40;12.70;;;14.60;9.20;;;;;;5074802;28;20464;-71
2022/04/16 12:10:49;;;;;;;15.07;14.17;;;14.30;10.50;;;;;;5093793;28;20435;-71
2022/04/16 12:13:14;;;;;;;14.50;13.80;;;14.20;11.10;;;;;;5093719;28;20468;-69
2022/04/16 12:15:44;;;;;;;14.17;13.37;;;14.40;10.80;;;;;;5093555;28;20406;-70
2022/04/16 12:18:19;;;;;;;14.90;14.20;;;14.30;10.60;;;;;;5093145;28;20214;-71
2022/04/16 12:20:47;;;;;;;13.10;12.57;;;14.20;10.30;;;;;;5093464;28;20448;-71
2022/04/16 12:23:22;;;;;;;14.70;14.00;;;14.10;10.20;;;;;;5087443;28;21017;-72
2022/04/16 12:25:48;;;;;;;13.60;13.00;;;14.40;10.10;;;;;;5093440;28;20459;-71
2022/04/16 12:28:15;;;;;;;13.27;12.67;;;14.50;10.00;;;;;;5095886;28;20999;-71
2022/04/16 12:30:51;;;;;;;13.93;13.23;;;14.30;9.50;;;;;;5093128;28;20448;-71
2022/04/16 12:33:16;;;;;;;14.47;13.77;;;14.60;9.40;;;;;;5094181;28;20958;-73
2022/04/16 12:35:47;;;;;;;14.77;13.93;;;14.40;9.60;;;;;;5091730;28;20444;-75
2022/04/16 12:38:15;;;;;;;14.20;13.60;;;14.10;8.60;;;;;;5092981;28;20636;-71
2022/04/16 12:40:41;;;;;;;14.73;13.93;;;13.90;9.20;;;;;;5092959;28;20428;-71
2022/04/16 12:43:07;;;;;;;14.07;13.27;;;13.90;9.20;;;;;;5092892;28;21007;-71
2022/04/16 12:45:33;;;;;;;14.10;13.47;;;13.90;9.60;;;;;;5092818;28;20772;-71
2022/04/16 12:47:59;;;;;;;14.07;13.30;;;13.80;10.40;;;;;;5092188;28;20491;-71
2022/04/16 12:50:26;;;;;;;14.23;13.47;;;14.00;9.50;;;;;;5092691;28;21069;-72
2022/04/16 12:52:52;;;;;;;14.80;14.00;;;13.70;10.00;;;;;;5094037;28;20204;-73
2022/04/16 12:55:18;;;;;;;13.90;13.20;;;13.70;10.20;;;;;;5092875;28;20424;-71
2022/04/16 12:57:44;;;;;;;13.97;13.07;;;13.60;10.70;;;;;;5095666;28;20776;-68
2022/04/16 13:00:11;;;;;;;14.20;13.50;;;13.20;11.20;;;;;;5092670;28;20190;-69
2022/04/16 13:02:42;;;;;;;13.30;12.40;;;13.30;11.40;;;;;;5091440;28;20411;-69
2022/04/16 13:05:12;;;;;;;12.60;12.00;;;13.00;11.70;;;;;;5092469;28;20774;-69